Startpagina
METAR-TAF:

METAR-TAF

Vliegvelden :

Great Falls, Montana, Verenigde Staten

breedte: 47-28-24N, lengte: 111-22-56W, hoogte: 1120 m

Actueel weer

Dit bericht is 39 minuten geleden gemaakt, om 23:53 UTC
Wind 3 kt uit het zuidoosten
Temperatuur -19°C
Vochtigheid 77%
Druk 1021 hPa
Zicht: 16.1 km
Onbewolkt

METAR: KGTF 182353Z 13003KT 10SM CLR M19/M22 A3015 RMK AO2 SLP316 60001 T11891217 11178 21211 56016 $

Tijdstip: 17:32 (00:32 UTC)

Verwachting

Dit bericht is 52 minuten geleden gemaakt, om 23:40 UTC
Verwachting geldig van 19 om 00 UTC tot 19 om 24 UTC
Wind 3 kt uit variabele richting
Zicht: 10 km
Onbewolkt
Van 19 om 0600 UTC
Wind 9 kt uit het zuidzuidwesten
Zicht: 10 km
Onbewolkt
Van 19 om 1500 UTC
Wind 15 kt uit het zuidzuidwesten met uitschieters tot 25 kt
Zicht: 8.0 km
Weinig wolken op 3000 ft
Weinig wolken op 20000 ft
Stuifsneeuw

TAF: KGTF 182340Z 1900/1924 VRB03KT P6SM SKC FM190600 20009KT P6SM SKC FM191500 20015G25KT 5SM BLSN FEW030 FEW200

Waarnemingen en weersverwachtingen van meer dan 4000 vliegvelden (METAR en TAF).

De beschikbare stations zijn de gele en rode punten op de kaart.

Ga met uw muis naar het station om de naam te zien.

Klik dan om waarnemingen en weersverwachtingen te zien.

kaart wijzigen: klik op de groene knoppen met een zwart kruis om in te zoomen, op de groene knop met een streepje om uit te zoomen of op de groene pijlen voor aangrenzende kaarten.


METAR-TAF: